sensor_id;sensor_type;location;lat;lon;timestamp;pressure;altitude;pressure_sealevel;temperature;humidity
16331;BME280;8275;48.206;16.340;2022-07-04T00:00:27;99231.06;;;27.76;35.73
16331;BME280;8275;48.206;16.340;2022-07-04T00:02:56;99240.69;;;27.75;36.08
16331;BME280;8275;48.206;16.340;2022-07-04T00:05:25;99236.97;;;27.71;36.01
16331;BME280;8275;48.206;16.340;2022-07-04T00:07:54;99248.97;;;27.68;36.41
16331;BME280;8275;48.206;16.340;2022-07-04T00:10:23;99242.91;;;27.66;36.00
16331;BME280;8275;48.206;16.340;2022-07-04T00:12:52;99251.34;;;27.66;36.43
16331;BME280;8275;48.206;16.340;2022-07-04T00:15:20;99245.28;;;27.64;36.58
16331;BME280;8275;48.206;16.340;2022-07-04T00:17:49;99246.44;;;27.63;36.46
16331;BME280;8275;48.206;16.340;2022-07-04T00:20:18;99240.81;;;27.63;36.64
16331;BME280;8275;48.206;16.340;2022-07-04T00:22:47;99238.75;;;27.60;36.82
16331;BME280;8275;48.206;16.340;2022-07-04T00:25:16;99235.50;;;27.58;36.39
16331;BME280;8275;48.206;16.340;2022-07-04T00:27:44;99229.88;;;27.58;36.83
16331;BME280;8275;48.206;16.340;2022-07-04T00:30:13;99232.25;;;27.56;36.92
16331;BME280;8275;48.206;16.340;2022-07-04T00:32:41;99230.63;;;27.55;36.90
16331;BME280;8275;48.206;16.340;2022-07-04T00:35:10;99237.78;;;27.52;36.52
16331;BME280;8275;48.206;16.340;2022-07-04T00:37:38;99228.91;;;27.50;36.51
16331;BME280;8275;48.206;16.340;2022-07-04T00:40:09;99222.00;;;27.48;36.65
16331;BME280;8275;48.206;16.340;2022-07-04T00:42:38;99223.19;;;27.47;36.89
16331;BME280;8275;48.206;16.340;2022-07-04T00:45:08;99221.47;;;27.42;36.88
16331;BME280;8275;48.206;16.340;2022-07-04T00:47:36;99225.06;;;27.39;36.81
16331;BME280;8275;48.206;16.340;2022-07-04T00:50:05;99230.25;;;27.37;36.62
16331;BME280;8275;48.206;16.340;2022-07-04T00:52:34;99221.22;;;27.32;37.24
16331;BME280;8275;48.206;16.340;2022-07-04T00:55:03;99229.59;;;27.28;36.85
16331;BME280;8275;48.206;16.340;2022-07-04T00:57:33;99231.50;;;27.24;37.06
16331;BME280;8275;48.206;16.340;2022-07-04T01:00:02;99226.63;;;27.21;37.26
16331;BME280;8275;48.206;16.340;2022-07-04T01:02:31;99220.91;;;27.17;37.33
16331;BME280;8275;48.206;16.340;2022-07-04T01:04:59;99228.44;;;27.13;37.57
16331;BME280;8275;48.206;16.340;2022-07-04T01:07:28;99226.03;;;27.12;37.56
16331;BME280;8275;48.206;16.340;2022-07-04T01:09:57;99221.56;;;27.11;37.50
16331;BME280;8275;48.206;16.340;2022-07-04T01:12:27;99222.72;;;27.10;37.58
16331;BME280;8275;48.206;16.340;2022-07-04T01:14:57;99221.50;;;27.07;37.52
16331;BME280;8275;48.206;16.340;2022-07-04T01:17:25;99223.84;;;27.05;37.18
16331;BME280;8275;48.206;16.340;2022-07-04T01:19:54;99221.41;;;27.04;37.72
16331;BME280;8275;48.206;16.340;2022-07-04T01:22:24;99221.03;;;27.05;37.49
16331;BME280;8275;48.206;16.340;2022-07-04T01:24:52;99216.22;;;27.06;37.65
16331;BME280;8275;48.206;16.340;2022-07-04T01:27:21;99219.47;;;27.08;37.56
16331;BME280;8275;48.206;16.340;2022-07-04T01:29:49;99214.69;;;27.08;37.54
16331;BME280;8275;48.206;16.340;2022-07-04T01:32:18;99217.47;;;27.08;37.89
16331;BME280;8275;48.206;16.340;2022-07-04T01:34:46;99220.28;;;27.08;37.70
16331;BME280;8275;48.206;16.340;2022-07-04T01:37:16;99210.25;;;27.07;37.77
16331;BME280;8275;48.206;16.340;2022-07-04T01:39:45;99219.03;;;27.06;38.40
16331;BME280;8275;48.206;16.340;2022-07-04T01:42:14;99220.56;;;27.03;38.15
16331;BME280;8275;48.206;16.340;2022-07-04T01:44:43;99213.69;;;27.01;38.33
16331;BME280;8275;48.206;16.340;2022-07-04T01:47:11;99221.69;;;26.99;38.42
16331;BME280;8275;48.206;16.340;2022-07-04T01:49:40;99217.16;;;26.94;38.19
16331;BME280;8275;48.206;16.340;2022-07-04T01:52:08;99219.50;;;26.92;38.64
16331;BME280;8275;48.206;16.340;2022-07-04T01:54:37;99221.06;;;26.90;38.53
16331;BME280;8275;48.206;16.340;2022-07-04T01:57:07;99221.44;;;26.88;38.71
16331;BME280;8275;48.206;16.340;2022-07-04T01:59:35;99222.97;;;26.86;38.80
16331;BME280;8275;48.206;16.340;2022-07-04T02:02:21;99218.00;;;26.79;38.47
16331;BME280;8275;48.206;16.340;2022-07-04T02:04:49;99216.75;;;26.77;38.69
16331;BME280;8275;48.206;16.340;2022-07-04T02:07:18;99213.78;;;26.73;38.79
16331;BME280;8275;48.206;16.340;2022-07-04T02:09:47;99218.16;;;26.71;38.76
16331;BME280;8275;48.206;16.340;2022-07-04T02:12:17;99216.44;;;26.66;39.08
16331;BME280;8275;48.206;16.340;2022-07-04T02:15:03;99219.97;;;26.63;38.88
16331;BME280;8275;48.206;16.340;2022-07-04T02:17:33;99219.09;;;26.59;38.78
16331;BME280;8275;48.206;16.340;2022-07-04T02:20:01;99218.59;;;26.57;39.03
16331;BME280;8275;48.206;16.340;2022-07-04T02:22:31;99217.72;;;26.53;39.23
16331;BME280;8275;48.206;16.340;2022-07-04T02:25:00;99216.44;;;26.51;39.35
16331;BME280;8275;48.206;16.340;2022-07-04T02:27:30;99211.91;;;26.46;39.02
16331;BME280;8275;48.206;16.340;2022-07-04T02:29:58;99208.66;;;26.44;39.14
16331;BME280;8275;48.206;16.340;2022-07-04T02:32:27;99215.00;;;26.41;39.30
16331;BME280;8275;48.206;16.340;2022-07-04T02:34:55;99211.72;;;26.39;39.32
16331;BME280;8275;48.206;16.340;2022-07-04T02:37:23;99212.09;;;26.37;39.46
16331;BME280;8275;48.206;16.340;2022-07-04T02:39:52;99208.03;;;26.35;39.48
16331;BME280;8275;48.206;16.340;2022-07-04T02:42:20;99205.59;;;26.33;39.67
16331;BME280;8275;48.206;16.340;2022-07-04T02:44:50;99199.50;;;26.31;39.64
16331;BME280;8275;48.206;16.340;2022-07-04T02:47:18;99205.13;;;26.31;39.58
16331;BME280;8275;48.206;16.340;2022-07-04T02:49:47;99211.91;;;26.30;39.78
16331;BME280;8275;48.206;16.340;2022-07-04T02:52:15;99204.66;;;26.29;40.01
16331;BME280;8275;48.206;16.340;2022-07-04T02:54:43;99211.84;;;26.27;39.96
16331;BME280;8275;48.206;16.340;2022-07-04T02:57:14;99203.75;;;26.25;40.00
16331;BME280;8275;48.206;16.340;2022-07-04T02:59:43;99202.47;;;26.23;40.05
16331;BME280;8275;48.206;16.340;2022-07-04T03:02:13;99201.59;;;26.19;39.87
16331;BME280;8275;48.206;16.340;2022-07-04T03:04:41;99206.38;;;26.18;39.76
16331;BME280;8275;48.206;16.340;2022-07-04T03:07:10;99204.75;;;26.17;39.79
16331;BME280;8275;48.206;16.340;2022-07-04T03:09:39;99201.50;;;26.15;39.79
16331;BME280;8275;48.206;16.340;2022-07-04T03:12:08;99196.22;;;26.14;40.06
16331;BME280;8275;48.206;16.340;2022-07-04T03:14:37;99197.03;;;26.14;40.20
16331;BME280;8275;48.206;16.340;2022-07-04T03:17:05;99206.63;;;26.13;40.05
16331;BME280;8275;48.206;16.340;2022-07-04T03:19:35;99213.91;;;26.14;40.09
16331;BME280;8275;48.206;16.340;2022-07-04T03:22:04;99214.72;;;26.15;40.01
16331;BME280;8275;48.206;16.340;2022-07-04T03:24:32;99214.72;;;26.15;40.30
16331;BME280;8275;48.206;16.340;2022-07-04T03:27:01;99217.97;;;26.17;40.38
16331;BME280;8275;48.206;16.340;2022-07-04T03:29:29;99222.41;;;26.18;40.30
16331;BME280;8275;48.206;16.340;2022-07-04T03:31:58;99214.47;;;26.20;40.44
16331;BME280;8275;48.206;16.340;2022-07-04T03:34:26;99226.13;;;26.22;40.57
16331;BME280;8275;48.206;16.340;2022-07-04T03:36:56;99220.97;;;26.24;40.63
16331;BME280;8275;48.206;16.340;2022-07-04T03:39:24;99213.00;;;26.26;40.16
16331;BME280;8275;48.206;16.340;2022-07-04T03:41:53;99220.72;;;26.29;40.20
16331;BME280;8275;48.206;16.340;2022-07-04T03:44:21;99217.59;;;26.34;40.29
16331;BME280;8275;48.206;16.340;2022-07-04T03:46:50;99222.50;;;26.37;40.46
16331;BME280;8275;48.206;16.340;2022-07-04T03:49:18;99219.81;;;26.40;40.45
16331;BME280;8275;48.206;16.340;2022-07-04T03:51:46;99233.56;;;26.45;40.19
16331;BME280;8275;48.206;16.340;2022-07-04T03:54:16;99229.66;;;26.50;40.06
16331;BME280;8275;48.206;16.340;2022-07-04T03:56:45;99226.59;;;26.55;40.44
16331;BME280;8275;48.206;16.340;2022-07-04T03:59:13;99237.56;;;26.60;40.11
16331;BME280;8275;48.206;16.340;2022-07-04T04:01:42;99230.03;;;26.64;39.94
16331;BME280;8275;48.206;16.340;2022-07-04T04:04:11;99233.78;;;26.68;40.38
16331;BME280;8275;48.206;16.340;2022-07-04T04:06:57;99240.28;;;26.72;39.79
16331;BME280;8275;48.206;16.340;2022-07-04T04:09:27;99248.47;;;26.77;40.11
16331;BME280;8275;48.206;16.340;2022-07-04T04:11:55;99253.44;;;26.84;39.83
16331;BME280;8275;48.206;16.340;2022-07-04T04:14:24;99241.94;;;26.89;40.10
16331;BME280;8275;48.206;16.340;2022-07-04T04:16:53;99256.97;;;26.96;40.17
16331;BME280;8275;48.206;16.340;2022-07-04T04:19:21;99269.56;;;27.02;39.72
16331;BME280;8275;48.206;16.340;2022-07-04T04:21:50;99265.28;;;27.08;39.66
16331;BME280;8275;48.206;16.340;2022-07-04T04:24:18;99259.00;;;27.15;39.95
16331;BME280;8275;48.206;16.340;2022-07-04T04:26:48;99258.72;;;27.20;39.57
16331;BME280;8275;48.206;16.340;2022-07-04T04:29:17;99249.63;;;27.27;39.59
16331;BME280;8275;48.206;16.340;2022-07-04T04:31:45;99262.25;;;27.33;39.60
16331;BME280;8275;48.206;16.340;2022-07-04T04:34:14;99258.00;;;27.39;39.45
16331;BME280;8275;48.206;16.340;2022-07-04T04:36:42;99257.34;;;27.45;39.38
16331;BME280;8275;48.206;16.340;2022-07-04T04:39:10;99261.56;;;27.55;39.70
16331;BME280;8275;48.206;16.340;2022-07-04T04:41:39;99256.53;;;27.64;39.54
16331;BME280;8275;48.206;16.340;2022-07-04T04:44:09;99245.50;;;27.74;39.62
16331;BME280;8275;48.206;16.340;2022-07-04T04:46:37;99263.06;;;27.87;39.51
16331;BME280;8275;48.206;16.340;2022-07-04T04:49:06;99251.22;;;27.97;39.58
16331;BME280;8275;48.206;16.340;2022-07-04T04:51:34;99266.03;;;28.13;39.39
16331;BME280;8275;48.206;16.340;2022-07-04T04:54:03;99254.66;;;28.29;38.75
16331;BME280;8275;48.206;16.340;2022-07-04T04:56:32;99270.75;;;28.51;38.94
16331;BME280;8275;48.206;16.340;2022-07-04T04:59:00;99270.44;;;28.75;38.62
16331;BME280;8275;48.206;16.340;2022-07-04T05:01:30;99274.72;;;28.92;38.18
16331;BME280;8275;48.206;16.340;2022-07-04T05:04:08;99273.78;;;29.07;38.24
16331;BME280;8275;48.206;16.340;2022-07-04T05:06:37;99274.38;;;29.19;38.12
16331;BME280;8275;48.206;16.340;2022-07-04T05:09:06;99277.38;;;29.30;37.94
16331;BME280;8275;48.206;16.340;2022-07-04T05:11:34;99283.59;;;29.43;37.45
16331;BME280;8275;48.206;16.340;2022-07-04T05:14:03;99278.13;;;29.53;37.79
16331;BME280;8275;48.206;16.340;2022-07-04T05:16:33;99284.31;;;29.62;37.42
16331;BME280;8275;48.206;16.340;2022-07-04T05:19:02;99291.72;;;29.74;37.14
16331;BME280;8275;48.206;16.340;2022-07-04T05:21:30;99296.28;;;29.82;36.79
16331;BME280;8275;48.206;16.340;2022-07-04T05:23:59;99290.78;;;29.93;36.91
16331;BME280;8275;48.206;16.340;2022-07-04T05:26:27;99290.97;;;30.07;36.66
16331;BME280;8275;48.206;16.340;2022-07-04T05:28:56;99281.88;;;30.24;36.68
16331;BME280;8275;48.206;16.340;2022-07-04T05:31:25;99288.59;;;30.45;36.46
16331;BME280;8275;48.206;16.340;2022-07-04T05:33:55;99278.31;;;30.67;36.17
16331;BME280;8275;48.206;16.340;2022-07-04T05:36:24;99272.41;;;30.86;36.08
16331;BME280;8275;48.206;16.340;2022-07-04T05:38:56;99276.63;;;31.03;35.85
16331;BME280;8275;48.206;16.340;2022-07-04T05:41:25;99268.63;;;31.15;35.42
16331;BME280;8275;48.206;16.340;2022-07-04T05:43:54;99276.34;;;31.22;35.27
16331;BME280;8275;48.206;16.340;2022-07-04T05:46:25;99278.41;;;31.21;35.02
16331;BME280;8275;48.206;16.340;2022-07-04T05:48:55;99267.44;;;31.16;34.77
16331;BME280;8275;48.206;16.340;2022-07-04T05:51:24;99272.66;;;31.11;34.76
16331;BME280;8275;48.206;16.340;2022-07-04T05:53:52;99278.66;;;31.06;34.71
16331;BME280;8275;48.206;16.340;2022-07-04T05:56:21;99278.25;;;31.04;34.72
16331;BME280;8275;48.206;16.340;2022-07-04T05:58:50;99281.53;;;31.09;34.64
16331;BME280;8275;48.206;16.340;2022-07-04T06:01:19;99281.59;;;31.16;34.48
16331;BME280;8275;48.206;16.340;2022-07-04T06:03:48;99285.28;;;31.24;34.39
16331;BME280;8275;48.206;16.340;2022-07-04T06:06:18;99288.56;;;31.30;34.39
16331;BME280;8275;48.206;16.340;2022-07-04T06:08:47;99288.19;;;31.38;34.23
16331;BME280;8275;48.206;16.340;2022-07-04T06:11:15;99295.59;;;31.46;33.91
16331;BME280;8275;48.206;16.340;2022-07-04T06:13:44;99294.84;;;31.56;34.00
16331;BME280;8275;48.206;16.340;2022-07-04T06:16:13;99302.25;;;31.78;33.87
16331;BME280;8275;48.206;16.340;2022-07-04T06:18:42;99294.69;;;32.04;33.65
16331;BME280;8275;48.206;16.340;2022-07-04T06:21:10;99294.78;;;32.28;33.10
16331;BME280;8275;48.206;16.340;2022-07-04T06:23:40;99303.75;;;32.48;32.90
16331;BME280;8275;48.206;16.340;2022-07-04T06:26:08;99307.47;;;32.70;32.58
16331;BME280;8275;48.206;16.340;2022-07-04T06:28:37;99312.34;;;32.87;32.42
16331;BME280;8275;48.206;16.340;2022-07-04T06:31:14;99318.44;;;32.99;32.27
16331;BME280;8275;48.206;16.340;2022-07-04T06:33:43;99325.75;;;33.11;32.15
16331;BME280;8275;48.206;16.340;2022-07-04T06:36:29;99341.59;;;33.19;31.91
16331;BME280;8275;48.206;16.340;2022-07-04T06:38:59;99339.97;;;33.25;31.47
16331;BME280;8275;48.206;16.340;2022-07-04T06:41:27;99335.50;;;33.28;31.42
16331;BME280;8275;48.206;16.340;2022-07-04T06:43:55;99350.53;;;33.28;31.71
16331;BME280;8275;48.206;16.340;2022-07-04T06:46:24;99349.72;;;33.24;31.39
16331;BME280;8275;48.206;16.340;2022-07-04T06:48:52;99354.97;;;33.18;31.00
16331;BME280;8275;48.206;16.340;2022-07-04T06:51:21;99359.03;;;33.03;31.04
16331;BME280;8275;48.206;16.340;2022-07-04T06:53:50;99362.22;;;32.91;31.04
16331;BME280;8275;48.206;16.340;2022-07-04T06:56:20;99365.47;;;32.83;31.04
16331;BME280;8275;48.206;16.340;2022-07-04T06:58:48;99365.84;;;32.81;31.26
16331;BME280;8275;48.206;16.340;2022-07-04T07:01:16;99379.25;;;32.84;31.10
16331;BME280;8275;48.206;16.340;2022-07-04T07:03:45;99378.06;;;32.92;30.78
16331;BME280;8275;48.206;16.340;2022-07-04T07:06:14;99369.13;;;32.97;30.74
16331;BME280;8275;48.206;16.340;2022-07-04T07:08:42;99369.16;;;33.01;30.98
16331;BME280;8275;48.206;16.340;2022-07-04T07:11:11;99382.56;;;33.04;30.77
16331;BME280;8275;48.206;16.340;2022-07-04T07:13:48;99365.53;;;33.04;31.17
16331;BME280;8275;48.206;16.340;2022-07-04T07:16:18;99381.34;;;33.05;31.02
16331;BME280;8275;48.206;16.340;2022-07-04T07:18:47;99372.41;;;33.06;30.63
16331;BME280;8275;48.206;16.340;2022-07-04T07:21:17;99371.19;;;33.11;31.19
16331;BME280;8275;48.206;16.340;2022-07-04T07:23:45;99364.72;;;33.21;30.85
16331;BME280;8275;48.206;16.340;2022-07-04T07:26:14;99367.56;;;33.28;30.73
16331;BME280;8275;48.206;16.340;2022-07-04T07:28:42;99361.06;;;33.35;30.57
16331;BME280;8275;48.206;16.340;2022-07-04T07:31:13;99361.47;;;33.40;31.05
16331;BME280;8275;48.206;16.340;2022-07-04T07:33:41;99354.16;;;33.46;30.89
16331;BME280;8275;48.206;16.340;2022-07-04T07:36:10;99353.38;;;33.56;30.37
16331;BME280;8275;48.206;16.340;2022-07-04T07:38:38;99369.59;;;33.70;30.27
16331;BME280;8275;48.206;16.340;2022-07-04T07:41:08;99341.56;;;33.79;30.30
16331;BME280;8275;48.206;16.340;2022-07-04T07:43:37;99351.28;;;33.81;30.24
16331;BME280;8275;48.206;16.340;2022-07-04T07:46:08;99356.16;;;33.81;29.56
16331;BME280;8275;48.206;16.340;2022-07-04T07:48:38;99346.41;;;33.78;29.33
16331;BME280;8275;48.206;16.340;2022-07-04T07:51:06;99354.16;;;33.74;29.14
16331;BME280;8275;48.206;16.340;2022-07-04T07:53:35;99345.25;;;33.65;29.58
16331;BME280;8275;48.206;16.340;2022-07-04T07:56:23;99336.31;;;33.49;28.86
16331;BME280;8275;48.206;16.340;2022-07-04T07:58:52;99325.34;;;33.37;29.25
16331;BME280;8275;48.206;16.340;2022-07-04T08:01:21;99327.81;;;33.24;28.64
16331;BME280;8275;48.206;16.340;2022-07-04T08:03:51;99321.72;;;33.12;28.49
16331;BME280;8275;48.206;16.340;2022-07-04T08:06:40;99309.16;;;33.02;28.49
16331;BME280;8275;48.206;16.340;2022-07-04T08:09:29;99312.34;;;32.97;29.05
16331;BME280;8275;48.206;16.340;2022-07-04T08:11:58;99311.94;;;32.95;28.35
16331;BME280;8275;48.206;16.340;2022-07-04T08:14:27;99325.34;;;32.98;28.90
16331;BME280;8275;48.206;16.340;2022-07-04T08:16:56;99314.03;;;33.05;28.42
16331;BME280;8275;48.206;16.340;2022-07-04T08:19:26;99309.97;;;33.17;28.59
16331;BME280;8275;48.206;16.340;2022-07-04T08:21:55;99307.91;;;33.35;28.60
16331;BME280;8275;48.206;16.340;2022-07-04T08:24:42;99310.75;;;33.53;28.44
16331;BME280;8275;48.206;16.340;2022-07-04T08:27:11;99306.69;;;33.61;27.65
16331;BME280;8275;48.206;16.340;2022-07-04T08:29:40;99294.91;;;33.66;27.64
16331;BME280;8275;48.206;16.340;2022-07-04T08:32:09;99300.56;;;33.76;28.08
16331;BME280;8275;48.206;16.340;2022-07-04T08:34:39;99305.81;;;33.81;27.95
16331;BME280;8275;48.206;16.340;2022-07-04T08:37:10;99304.97;;;33.88;27.11
16331;BME280;8275;48.206;16.340;2022-07-04T08:39:39;99312.69;;;33.94;27.22
16331;BME280;8275;48.206;16.340;2022-07-04T08:42:13;99318.34;;;34.02;27.60
16331;BME280;8275;48.206;16.340;2022-07-04T08:44:49;99324.84;;;34.09;26.87
16331;BME280;8275;48.206;16.340;2022-07-04T08:47:20;99317.09;;;34.17;27.21
16331;BME280;8275;48.206;16.340;2022-07-04T08:49:59;99326.38;;;34.24;27.20
16331;BME280;8275;48.206;16.340;2022-07-04T08:52:37;99334.53;;;34.26;26.91
16331;BME280;8275;48.206;16.340;2022-07-04T08:55:07;99337.75;;;34.24;26.51
16331;BME280;8275;48.206;16.340;2022-07-04T08:57:53;99342.22;;;34.29;26.66
16331;BME280;8275;48.206;16.340;2022-07-04T09:00:40;99351.56;;;34.33;26.79
16331;BME280;8275;48.206;16.340;2022-07-04T09:03:10;99344.22;;;34.39;26.92
16331;BME280;8275;48.206;16.340;2022-07-04T09:05:40;99347.03;;;34.46;26.94
16331;BME280;8275;48.206;16.340;2022-07-04T09:08:09;99350.69;;;34.53;27.25
16331;BME280;8275;48.206;16.340;2022-07-04T09:10:38;99349.44;;;34.51;26.96
16331;BME280;8275;48.206;16.340;2022-07-04T09:13:08;99341.34;;;34.46;26.82
16331;BME280;8275;48.206;16.340;2022-07-04T09:15:40;99353.13;;;34.41;27.08
16331;BME280;8275;48.206;16.340;2022-07-04T09:18:24;99352.78;;;34.28;26.87
16331;BME280;8275;48.206;16.340;2022-07-04T09:20:57;99343.09;;;34.19;27.03
16331;BME280;8275;48.206;16.340;2022-07-04T09:23:28;99357.72;;;34.10;26.79
16331;BME280;8275;48.206;16.340;2022-07-04T09:26:13;99339.06;;;33.95;26.94
16331;BME280;8275;48.206;16.340;2022-07-04T09:28:45;99351.28;;;33.85;26.71
16331;BME280;8275;48.206;16.340;2022-07-04T09:31:20;99355.38;;;33.70;27.25
16331;BME280;8275;48.206;16.340;2022-07-04T09:33:53;99346.47;;;33.54;27.58
16331;BME280;8275;48.206;16.340;2022-07-04T09:36:25;99345.63;;;33.39;27.68
16331;BME280;8275;48.206;16.340;2022-07-04T09:39:11;99339.97;;;33.25;27.90
16331;BME280;8275;48.206;16.340;2022-07-04T09:41:54;99343.63;;;33.15;27.99
16331;BME280;8275;48.206;16.340;2022-07-04T09:44:25;99339.56;;;33.16;27.85
16331;BME280;8275;48.206;16.340;2022-07-04T09:46:54;99337.94;;;33.18;27.90
16331;BME280;8275;48.206;16.340;2022-07-04T09:49:23;99333.91;;;33.19;28.54
16331;BME280;8275;48.206;16.340;2022-07-04T09:51:53;99331.84;;;33.23;28.66
16331;BME280;8275;48.206;16.340;2022-07-04T09:54:24;99329.00;;;33.27;28.47
16331;BME280;8275;48.206;16.340;2022-07-04T09:56:57;99329.44;;;33.29;28.61
16331;BME280;8275;48.206;16.340;2022-07-04T09:59:27;99329.00;;;33.34;28.14
16331;BME280;8275;48.206;16.340;2022-07-04T10:02:09;99320.91;;;33.36;28.36
16331;BME280;8275;48.206;16.340;2022-07-04T10:04:44;99316.03;;;33.37;27.96
16331;BME280;8275;48.206;16.340;2022-07-04T10:07:31;99318.06;;;33.33;28.08
16331;BME280;8275;48.206;16.340;2022-07-04T10:10:00;99312.78;;;33.35;28.17
16331;BME280;8275;48.206;16.340;2022-07-04T10:12:29;99308.31;;;33.30;27.89
16331;BME280;8275;48.206;16.340;2022-07-04T10:14:57;99301.84;;;33.26;27.91
16331;BME280;8275;48.206;16.340;2022-07-04T10:17:26;99309.53;;;33.25;28.00
16331;BME280;8275;48.206;16.340;2022-07-04T10:19:55;99295.34;;;33.25;28.23
16331;BME280;8275;48.206;16.340;2022-07-04T10:22:25;99296.16;;;33.30;27.86
16331;BME280;8275;48.206;16.340;2022-07-04T10:24:54;99294.50;;;33.39;28.07
16331;BME280;8275;48.206;16.340;2022-07-04T10:27:22;99299.38;;;33.49;27.61
16331;BME280;8275;48.206;16.340;2022-07-04T10:29:51;99308.28;;;33.62;27.54
16331;BME280;8275;48.206;16.340;2022-07-04T10:32:20;99311.13;;;33.79;27.75
16331;BME280;8275;48.206;16.340;2022-07-04T10:34:49;99313.06;;;33.97;27.11
16331;BME280;8275;48.206;16.340;2022-07-04T10:37:17;99307.75;;;34.16;27.56
16331;BME280;8275;48.206;16.340;2022-07-04T10:39:47;99303.19;;;34.36;26.66
16331;BME280;8275;48.206;16.340;2022-07-04T10:42:23;99309.59;;;34.58;26.83
16331;BME280;8275;48.206;16.340;2022-07-04T10:44:52;99311.44;;;34.86;26.96
16331;BME280;8275;48.206;16.340;2022-07-04T10:47:24;99303.13;;;35.09;25.87
16331;BME280;8275;48.206;16.340;2022-07-04T10:49:55;99305.31;;;35.39;25.66
16331;BME280;8275;48.206;16.340;2022-07-04T10:52:23;99304.50;;;35.79;25.37
16331;BME280;8275;48.206;16.340;2022-07-04T10:54:53;99302.84;;;36.19;24.86
16331;BME280;8275;48.206;16.340;2022-07-04T10:57:24;99290.16;;;36.53;24.11
16331;BME280;8275;48.206;16.340;2022-07-04T11:00:12;99293.25;;;36.93;24.25
16331;BME280;8275;48.206;16.340;2022-07-04T11:02:40;99283.19;;;37.31;23.39
16331;BME280;8275;48.206;16.340;2022-07-04T11:05:10;99282.69;;;37.59;23.34
16331;BME280;8275;48.206;16.340;2022-07-04T11:08:01;99289.34;;;37.95;23.77
16331;BME280;8275;48.206;16.340;2022-07-04T11:10:37;99283.84;;;38.24;23.16
16331;BME280;8275;48.206;16.340;2022-07-04T11:13:16;99279.44;;;38.39;22.63
16331;BME280;8275;48.206;16.340;2022-07-04T11:16:04;99281.16;;;38.53;22.27
16331;BME280;8275;48.206;16.340;2022-07-04T11:18:43;99272.56;;;38.73;22.39
16331;BME280;8275;48.206;16.340;2022-07-04T11:21:21;99271.88;;;39.17;22.14
16331;BME280;8275;48.206;16.340;2022-07-04T11:23:54;99271.72;;;39.69;20.98
16331;BME280;8275;48.206;16.340;2022-07-04T11:26:25;99260.31;;;40.10;21.01
16331;BME280;8275;48.206;16.340;2022-07-04T11:28:53;99262.56;;;40.44;20.56
16331;BME280;8275;48.206;16.340;2022-07-04T11:31:38;99264.41;;;40.63;20.95
16331;BME280;8275;48.206;16.340;2022-07-04T11:34:07;99262.81;;;40.87;20.34
16331;BME280;8275;48.206;16.340;2022-07-04T11:36:38;99270.06;;;40.92;19.43
16331;BME280;8275;48.206;16.340;2022-07-04T11:39:09;99281.63;;;40.76;19.89
16331;BME280;8275;48.206;16.340;2022-07-04T11:41:42;99270.47;;;40.52;19.40
16331;BME280;8275;48.206;16.340;2022-07-04T11:44:31;99284.00;;;40.27;19.99
16331;BME280;8275;48.206;16.340;2022-07-04T11:47:19;99279.97;;;39.95;20.41
16331;BME280;8275;48.206;16.340;2022-07-04T11:49:50;99282.41;;;39.68;20.43
16331;BME280;8275;48.206;16.340;2022-07-04T11:52:22;99282.13;;;39.47;21.09
16331;BME280;8275;48.206;16.340;2022-07-04T11:55:12;99279.94;;;39.22;20.24
16331;BME280;8275;48.206;16.340;2022-07-04T11:57:45;99271.66;;;39.08;21.14
16331;BME280;8275;48.206;16.340;2022-07-04T12:00:17;99270.50;;;39.05;21.07
16331;BME280;8275;48.206;16.340;2022-07-04T12:02:48;99266.75;;;39.24;21.13
16331;BME280;8275;48.206;16.340;2022-07-04T12:05:19;99273.56;;;39.30;21.12
16331;BME280;8275;48.206;16.340;2022-07-04T12:07:49;99264.22;;;39.43;20.71
16331;BME280;8275;48.206;16.340;2022-07-04T12:10:37;99248.97;;;39.90;21.21
16331;BME280;8275;48.206;16.340;2022-07-04T12:13:13;99240.84;;;40.55;20.81
16331;BME280;8275;48.206;16.340;2022-07-04T12:15:46;99237.22;;;41.40;20.25
16331;BME280;8275;48.206;16.340;2022-07-04T12:18:18;99237.59;;;42.28;19.64
16331;BME280;8275;48.206;16.340;2022-07-04T12:20:49;99239.88;;;43.04;19.18
16331;BME280;8275;48.206;16.340;2022-07-04T12:23:19;99240.03;;;43.67;18.40
16331;BME280;8275;48.206;16.340;2022-07-04T12:25:49;99244.91;;;44.30;17.66
16331;BME280;8275;48.206;16.340;2022-07-04T12:28:20;99237.00;;;44.91;16.80
16331;BME280;8275;48.206;16.340;2022-07-04T12:30:55;99238.19;;;45.55;16.70
16331;BME280;8275;48.206;16.340;2022-07-04T12:33:28;99237.75;;;46.24;16.21
16331;BME280;8275;48.206;16.340;2022-07-04T12:35:58;99238.22;;;46.81;15.92
16331;BME280;8275;48.206;16.340;2022-07-04T12:38:35;99239.72;;;47.46;15.35
16331;BME280;8275;48.206;16.340;2022-07-04T12:41:06;99239.81;;;48.18;14.91
16331;BME280;8275;48.206;16.340;2022-07-04T12:43:47;99238.84;;;48.83;14.67
16331;BME280;8275;48.206;16.340;2022-07-04T12:46:29;99240.53;;;49.49;14.25
16331;BME280;8275;48.206;16.340;2022-07-04T12:49:00;99247.13;;;50.03;12.91
16331;BME280;8275;48.206;16.340;2022-07-04T12:51:31;99243.25;;;50.33;12.59
16331;BME280;8275;48.206;16.340;2022-07-04T12:54:09;99251.44;;;50.29;12.12
16331;BME280;8275;48.206;16.340;2022-07-04T12:56:40;99255.88;;;50.14;11.78
16331;BME280;8275;48.206;16.340;2022-07-04T12:59:14;99258.78;;;49.92;11.36
16331;BME280;8275;48.206;16.340;2022-07-04T13:01:45;99256.91;;;49.88;11.56
16331;BME280;8275;48.206;16.340;2022-07-04T13:04:14;99255.81;;;49.86;11.77
16331;BME280;8275;48.206;16.340;2022-07-04T13:06:43;99253.31;;;49.62;11.10
16331;BME280;8275;48.206;16.340;2022-07-04T13:09:12;99258.66;;;49.21;11.34
16331;BME280;8275;48.206;16.340;2022-07-04T13:11:40;99252.78;;;48.79;11.52
16331;BME280;8275;48.206;16.340;2022-07-04T13:14:27;99245.25;;;48.62;11.49
16331;BME280;8275;48.206;16.340;2022-07-04T13:16:56;99247.34;;;48.61;11.73
16331;BME280;8275;48.206;16.340;2022-07-04T13:19:24;99238.97;;;48.69;11.73